sensor_id;sensor_type;location;lat;lon;timestamp;temperature;humidity
9271;DHT22;4673;53.458;9.940;2022-07-23T00:00:46;16.10;73.90
9271;DHT22;4673;53.458;9.940;2022-07-23T00:03:12;16.10;73.90
9271;DHT22;4673;53.458;9.940;2022-07-23T00:05:38;16.10;73.90
9271;DHT22;4673;53.458;9.940;2022-07-23T00:08:06;16.10;74.00
9271;DHT22;4673;53.458;9.940;2022-07-23T00:10:31;16.10;73.90
9271;DHT22;4673;53.458;9.940;2022-07-23T00:12:57;16.10;73.90
9271;DHT22;4673;53.458;9.940;2022-07-23T00:15:23;16.10;74.00
9271;DHT22;4673;53.458;9.940;2022-07-23T00:17:49;16.00;74.00
9271;DHT22;4673;53.458;9.940;2022-07-23T00:20:14;16.00;74.00
9271;DHT22;4673;53.458;9.940;2022-07-23T00:22:50;16.10;74.40
9271;DHT22;4673;53.458;9.940;2022-07-23T00:25:16;16.00;74.20
9271;DHT22;4673;53.458;9.940;2022-07-23T00:27:42;16.00;74.40
9271;DHT22;4673;53.458;9.940;2022-07-23T00:30:09;16.00;74.60
9271;DHT22;4673;53.458;9.940;2022-07-23T00:32:51;15.90;74.80
9271;DHT22;4673;53.458;9.940;2022-07-23T00:35:20;16.00;74.90
9271;DHT22;4673;53.458;9.940;2022-07-23T00:37:47;16.00;74.60
9271;DHT22;4673;53.458;9.940;2022-07-23T00:40:13;15.90;74.70
9271;DHT22;4673;53.458;9.940;2022-07-23T00:42:39;15.90;74.80
9271;DHT22;4673;53.458;9.940;2022-07-23T00:45:05;15.90;75.00
9271;DHT22;4673;53.458;9.940;2022-07-23T00:47:32;15.80;75.00
9271;DHT22;4673;53.458;9.940;2022-07-23T00:49:57;15.80;75.10
9271;DHT22;4673;53.458;9.940;2022-07-23T00:52:23;15.80;75.40
9271;DHT22;4673;53.458;9.940;2022-07-23T00:54:49;15.70;75.50
9271;DHT22;4673;53.458;9.940;2022-07-23T00:57:15;15.70;75.80
9271;DHT22;4673;53.458;9.940;2022-07-23T00:59:42;15.70;75.90
9271;DHT22;4673;53.458;9.940;2022-07-23T01:02:07;15.70;76.10
9271;DHT22;4673;53.458;9.940;2022-07-23T01:04:33;15.70;76.30
9271;DHT22;4673;53.458;9.940;2022-07-23T01:07:00;15.70;76.50
9271;DHT22;4673;53.458;9.940;2022-07-23T01:09:26;15.70;76.60
9271;DHT22;4673;53.458;9.940;2022-07-23T01:11:54;15.60;76.70
9271;DHT22;4673;53.458;9.940;2022-07-23T01:14:20;15.60;77.00
9271;DHT22;4673;53.458;9.940;2022-07-23T01:16:48;15.50;77.30
9271;DHT22;4673;53.458;9.940;2022-07-23T01:19:15;15.50;77.40
9271;DHT22;4673;53.458;9.940;2022-07-23T01:21:44;15.50;77.70
9271;DHT22;4673;53.458;9.940;2022-07-23T01:24:10;15.50;77.80
9271;DHT22;4673;53.458;9.940;2022-07-23T01:26:38;15.50;77.80
9271;DHT22;4673;53.458;9.940;2022-07-23T01:29:05;15.50;77.90
9271;DHT22;4673;53.458;9.940;2022-07-23T01:31:30;15.50;77.70
9271;DHT22;4673;53.458;9.940;2022-07-23T01:33:56;15.50;77.70
9271;DHT22;4673;53.458;9.940;2022-07-23T01:36:22;15.60;77.90
9271;DHT22;4673;53.458;9.940;2022-07-23T01:38:50;15.50;77.90
9271;DHT22;4673;53.458;9.940;2022-07-23T01:41:16;15.50;78.20
9271;DHT22;4673;53.458;9.940;2022-07-23T01:43:42;15.50;78.10
9271;DHT22;4673;53.458;9.940;2022-07-23T01:46:07;15.40;78.20
9271;DHT22;4673;53.458;9.940;2022-07-23T01:48:33;15.40;78.30
9271;DHT22;4673;53.458;9.940;2022-07-23T01:50:58;15.40;78.40
9271;DHT22;4673;53.458;9.940;2022-07-23T01:53:24;15.40;78.50
9271;DHT22;4673;53.458;9.940;2022-07-23T01:55:50;15.40;78.30
9271;DHT22;4673;53.458;9.940;2022-07-23T01:58:15;15.40;78.30
9271;DHT22;4673;53.458;9.940;2022-07-23T02:00:41;15.40;78.20
9271;DHT22;4673;53.458;9.940;2022-07-23T02:03:07;15.40;78.40
9271;DHT22;4673;53.458;9.940;2022-07-23T02:05:32;15.40;78.40
9271;DHT22;4673;53.458;9.940;2022-07-23T02:07:59;15.40;78.50
9271;DHT22;4673;53.458;9.940;2022-07-23T02:10:26;15.30;78.50
9271;DHT22;4673;53.458;9.940;2022-07-23T02:12:52;15.30;78.80
9271;DHT22;4673;53.458;9.940;2022-07-23T02:15:18;15.30;78.90
9271;DHT22;4673;53.458;9.940;2022-07-23T02:17:44;15.20;78.90
9271;DHT22;4673;53.458;9.940;2022-07-23T02:20:11;15.20;79.00
9271;DHT22;4673;53.458;9.940;2022-07-23T02:22:37;15.10;79.30
9271;DHT22;4673;53.458;9.940;2022-07-23T02:25:04;15.00;79.20
9271;DHT22;4673;53.458;9.940;2022-07-23T02:27:30;15.00;79.50
9271;DHT22;4673;53.458;9.940;2022-07-23T02:29:56;15.00;79.70
9271;DHT22;4673;53.458;9.940;2022-07-23T02:32:23;14.90;79.90
9271;DHT22;4673;53.458;9.940;2022-07-23T02:34:49;14.90;80.30
9271;DHT22;4673;53.458;9.940;2022-07-23T02:37:15;14.80;80.40
9271;DHT22;4673;53.458;9.940;2022-07-23T02:39:44;14.80;80.80
9271;DHT22;4673;53.458;9.940;2022-07-23T02:42:09;14.70;80.80
9271;DHT22;4673;53.458;9.940;2022-07-23T02:44:35;14.70;81.10
9271;DHT22;4673;53.458;9.940;2022-07-23T02:47:01;14.60;81.10
9271;DHT22;4673;53.458;9.940;2022-07-23T02:49:27;14.50;81.50
9271;DHT22;4673;53.458;9.940;2022-07-23T02:51:53;14.50;81.70
9271;DHT22;4673;53.458;9.940;2022-07-23T02:54:18;14.40;82.00
9271;DHT22;4673;53.458;9.940;2022-07-23T02:56:44;14.40;82.30
9271;DHT22;4673;53.458;9.940;2022-07-23T02:59:10;14.30;82.50
9271;DHT22;4673;53.458;9.940;2022-07-23T03:01:36;14.30;82.90
9271;DHT22;4673;53.458;9.940;2022-07-23T03:04:02;14.10;83.00
9271;DHT22;4673;53.458;9.940;2022-07-23T03:06:27;14.10;83.30
9271;DHT22;4673;53.458;9.940;2022-07-23T03:08:53;14.00;83.80
9271;DHT22;4673;53.458;9.940;2022-07-23T03:11:19;13.90;84.00
9271;DHT22;4673;53.458;9.940;2022-07-23T03:13:44;13.80;84.10
9271;DHT22;4673;53.458;9.940;2022-07-23T03:16:10;13.80;84.70
9271;DHT22;4673;53.458;9.940;2022-07-23T03:18:36;13.80;85.20
9271;DHT22;4673;53.458;9.940;2022-07-23T03:21:02;13.70;85.60
9271;DHT22;4673;53.458;9.940;2022-07-23T03:23:27;13.70;85.90
9271;DHT22;4673;53.458;9.940;2022-07-23T03:25:53;13.70;86.30
9271;DHT22;4673;53.458;9.940;2022-07-23T03:28:19;13.70;86.60
9271;DHT22;4673;53.458;9.940;2022-07-23T03:30:46;13.70;86.80
9271;DHT22;4673;53.458;9.940;2022-07-23T03:33:19;13.70;87.00
9271;DHT22;4673;53.458;9.940;2022-07-23T03:35:46;13.70;87.20
9271;DHT22;4673;53.458;9.940;2022-07-23T03:38:12;13.70;87.30
9271;DHT22;4673;53.458;9.940;2022-07-23T03:40:38;13.70;87.40
9271;DHT22;4673;53.458;9.940;2022-07-23T03:43:04;13.70;87.50
9271;DHT22;4673;53.458;9.940;2022-07-23T03:45:30;13.70;87.70
9271;DHT22;4673;53.458;9.940;2022-07-23T03:47:55;13.80;88.00
9271;DHT22;4673;53.458;9.940;2022-07-23T03:50:21;13.80;88.00
9271;DHT22;4673;53.458;9.940;2022-07-23T03:52:47;13.80;88.20
9271;DHT22;4673;53.458;9.940;2022-07-23T03:55:13;13.90;88.40
9271;DHT22;4673;53.458;9.940;2022-07-23T03:57:38;14.00;88.40
9271;DHT22;4673;53.458;9.940;2022-07-23T04:00:06;14.10;88.40
9271;DHT22;4673;53.458;9.940;2022-07-23T04:02:33;14.20;88.50
9271;DHT22;4673;53.458;9.940;2022-07-23T04:04:58;14.40;88.50
9271;DHT22;4673;53.458;9.940;2022-07-23T04:07:25;14.60;88.50
9271;DHT22;4673;53.458;9.940;2022-07-23T04:09:51;14.90;88.50
9271;DHT22;4673;53.458;9.940;2022-07-23T04:12:16;15.10;87.80
9271;DHT22;4673;53.458;9.940;2022-07-23T04:14:42;15.30;86.80
9271;DHT22;4673;53.458;9.940;2022-07-23T04:17:08;15.50;85.50
9271;DHT22;4673;53.458;9.940;2022-07-23T04:19:33;15.60;84.60
9271;DHT22;4673;53.458;9.940;2022-07-23T04:22:01;15.70;84.10
9271;DHT22;4673;53.458;9.940;2022-07-23T04:24:26;15.70;83.40
9271;DHT22;4673;53.458;9.940;2022-07-23T04:26:52;15.70;82.50
9271;DHT22;4673;53.458;9.940;2022-07-23T04:29:18;15.70;82.20
9271;DHT22;4673;53.458;9.940;2022-07-23T04:31:44;15.60;81.80
9271;DHT22;4673;53.458;9.940;2022-07-23T04:34:09;15.50;81.90
9271;DHT22;4673;53.458;9.940;2022-07-23T04:36:35;15.50;81.70
9271;DHT22;4673;53.458;9.940;2022-07-23T04:39:00;15.50;81.80
9271;DHT22;4673;53.458;9.940;2022-07-23T04:41:26;15.50;81.70
9271;DHT22;4673;53.458;9.940;2022-07-23T04:43:52;15.50;81.70
9271;DHT22;4673;53.458;9.940;2022-07-23T04:46:18;15.40;81.40
9271;DHT22;4673;53.458;9.940;2022-07-23T04:48:43;15.40;81.70
9271;DHT22;4673;53.458;9.940;2022-07-23T04:51:09;15.30;82.00
9271;DHT22;4673;53.458;9.940;2022-07-23T04:53:37;15.30;82.50
9271;DHT22;4673;53.458;9.940;2022-07-23T04:56:03;15.20;82.70
9271;DHT22;4673;53.458;9.940;2022-07-23T04:58:29;15.20;82.70
9271;DHT22;4673;53.458;9.940;2022-07-23T05:00:55;15.20;82.90
9271;DHT22;4673;53.458;9.940;2022-07-23T05:03:23;15.20;83.10
9271;DHT22;4673;53.458;9.940;2022-07-23T05:05:48;15.20;83.20
9271;DHT22;4673;53.458;9.940;2022-07-23T05:08:14;15.30;83.10
9271;DHT22;4673;53.458;9.940;2022-07-23T05:10:40;15.30;82.80
9271;DHT22;4673;53.458;9.940;2022-07-23T05:13:06;15.20;83.20
9271;DHT22;4673;53.458;9.940;2022-07-23T05:15:31;15.30;83.30
9271;DHT22;4673;53.458;9.940;2022-07-23T05:17:57;15.40;83.20
9271;DHT22;4673;53.458;9.940;2022-07-23T05:20:22;15.50;83.00
9271;DHT22;4673;53.458;9.940;2022-07-23T05:22:48;15.50;82.90
9271;DHT22;4673;53.458;9.940;2022-07-23T05:25:14;15.50;82.90
9271;DHT22;4673;53.458;9.940;2022-07-23T05:27:39;15.60;82.80
9271;DHT22;4673;53.458;9.940;2022-07-23T05:30:05;15.60;82.40
9271;DHT22;4673;53.458;9.940;2022-07-23T05:32:32;15.70;82.60
9271;DHT22;4673;53.458;9.940;2022-07-23T05:34:58;15.80;82.50
9271;DHT22;4673;53.458;9.940;2022-07-23T05:37:23;15.90;82.20
9271;DHT22;4673;53.458;9.940;2022-07-23T05:39:49;16.00;82.10
9271;DHT22;4673;53.458;9.940;2022-07-23T05:42:14;16.10;82.00
9271;DHT22;4673;53.458;9.940;2022-07-23T05:44:40;16.20;81.50
9271;DHT22;4673;53.458;9.940;2022-07-23T05:47:06;16.30;80.60
9271;DHT22;4673;53.458;9.940;2022-07-23T05:49:31;16.30;80.10
9271;DHT22;4673;53.458;9.940;2022-07-23T05:51:57;16.30;79.60
9271;DHT22;4673;53.458;9.940;2022-07-23T05:54:22;16.40;79.50
9271;DHT22;4673;53.458;9.940;2022-07-23T05:56:48;16.40;79.40
9271;DHT22;4673;53.458;9.940;2022-07-23T05:59:15;16.40;79.50
9271;DHT22;4673;53.458;9.940;2022-07-23T06:01:41;16.40;79.50
9271;DHT22;4673;53.458;9.940;2022-07-23T06:04:07;16.50;79.60
9271;DHT22;4673;53.458;9.940;2022-07-23T06:06:33;16.50;79.30
9271;DHT22;4673;53.458;9.940;2022-07-23T06:08:58;16.50;78.80
9271;DHT22;4673;53.458;9.940;2022-07-23T06:11:24;16.50;78.80
9271;DHT22;4673;53.458;9.940;2022-07-23T06:13:49;16.60;78.80
9271;DHT22;4673;53.458;9.940;2022-07-23T06:16:15;16.70;78.80
9271;DHT22;4673;53.458;9.940;2022-07-23T06:18:41;16.80;78.60
9271;DHT22;4673;53.458;9.940;2022-07-23T06:21:06;16.90;78.10
9271;DHT22;4673;53.458;9.940;2022-07-23T06:23:32;16.90;77.90
9271;DHT22;4673;53.458;9.940;2022-07-23T06:25:57;17.10;78.20
9271;DHT22;4673;53.458;9.940;2022-07-23T06:28:23;17.30;77.30
9271;DHT22;4673;53.458;9.940;2022-07-23T06:30:48;17.40;76.10
9271;DHT22;4673;53.458;9.940;2022-07-23T06:33:14;17.50;75.10
9271;DHT22;4673;53.458;9.940;2022-07-23T06:35:40;17.50;74.80
9271;DHT22;4673;53.458;9.940;2022-07-23T06:38:05;17.60;74.90
9271;DHT22;4673;53.458;9.940;2022-07-23T06:40:31;17.70;74.00
9271;DHT22;4673;53.458;9.940;2022-07-23T06:42:56;17.70;73.30
9271;DHT22;4673;53.458;9.940;2022-07-23T06:45:22;17.80;73.40
9271;DHT22;4673;53.458;9.940;2022-07-23T06:47:48;17.90;73.10
9271;DHT22;4673;53.458;9.940;2022-07-23T06:50:13;17.90;71.60
9271;DHT22;4673;53.458;9.940;2022-07-23T06:52:39;17.70;71.60
9271;DHT22;4673;53.458;9.940;2022-07-23T06:55:05;17.60;72.00
9271;DHT22;4673;53.458;9.940;2022-07-23T06:57:31;17.80;72.00
9271;DHT22;4673;53.458;9.940;2022-07-23T06:59:56;17.90;71.60
9271;DHT22;4673;53.458;9.940;2022-07-23T07:02:22;17.80;70.20
9271;DHT22;4673;53.458;9.940;2022-07-23T07:04:48;17.80;70.30
9271;DHT22;4673;53.458;9.940;2022-07-23T07:07:14;17.70;69.90
9271;DHT22;4673;53.458;9.940;2022-07-23T07:09:39;17.60;71.60
9271;DHT22;4673;53.458;9.940;2022-07-23T07:12:05;17.80;71.50
9271;DHT22;4673;53.458;9.940;2022-07-23T07:14:31;17.90;70.70
9271;DHT22;4673;53.458;9.940;2022-07-23T07:16:56;17.90;70.00
9271;DHT22;4673;53.458;9.940;2022-07-23T07:19:22;17.70;70.60
9271;DHT22;4673;53.458;9.940;2022-07-23T07:21:48;17.70;70.80
9271;DHT22;4673;53.458;9.940;2022-07-23T07:24:13;17.90;71.00
9271;DHT22;4673;53.458;9.940;2022-07-23T07:26:39;17.90;70.50
9271;DHT22;4673;53.458;9.940;2022-07-23T07:29:05;18.00;69.90
9271;DHT22;4673;53.458;9.940;2022-07-23T07:31:31;18.30;69.40
9271;DHT22;4673;53.458;9.940;2022-07-23T07:33:58;18.50;65.30
9271;DHT22;4673;53.458;9.940;2022-07-23T07:36:24;18.10;66.00
9271;DHT22;4673;53.458;9.940;2022-07-23T07:38:49;17.90;66.70
9271;DHT22;4673;53.458;9.940;2022-07-23T07:41:15;17.80;66.90
9271;DHT22;4673;53.458;9.940;2022-07-23T07:43:41;17.90;67.10
9271;DHT22;4673;53.458;9.940;2022-07-23T07:46:07;17.90;67.10
9271;DHT22;4673;53.458;9.940;2022-07-23T07:48:37;18.00;67.70
9271;DHT22;4673;53.458;9.940;2022-07-23T07:51:04;18.20;66.30
9271;DHT22;4673;53.458;9.940;2022-07-23T07:53:29;18.50;67.30
9271;DHT22;4673;53.458;9.940;2022-07-23T07:55:55;19.00;66.70
9271;DHT22;4673;53.458;9.940;2022-07-23T07:58:21;19.40;64.20
9271;DHT22;4673;53.458;9.940;2022-07-23T08:00:46;19.20;62.60
9271;DHT22;4673;53.458;9.940;2022-07-23T08:03:12;19.00;63.00
9271;DHT22;4673;53.458;9.940;2022-07-23T08:05:38;19.10;63.90
9271;DHT22;4673;53.458;9.940;2022-07-23T08:08:04;19.30;62.20
9271;DHT22;4673;53.458;9.940;2022-07-23T08:10:30;19.40;62.40
9271;DHT22;4673;53.458;9.940;2022-07-23T08:12:57;19.50;62.30
9271;DHT22;4673;53.458;9.940;2022-07-23T08:15:25;19.00;61.80
9271;DHT22;4673;53.458;9.940;2022-07-23T08:17:51;18.60;63.70
9271;DHT22;4673;53.458;9.940;2022-07-23T08:20:19;18.50;64.80
9271;DHT22;4673;53.458;9.940;2022-07-23T08:22:51;18.40;65.80
9271;DHT22;4673;53.458;9.940;2022-07-23T08:25:27;18.10;68.00
9271;DHT22;4673;53.458;9.940;2022-07-23T08:27:53;18.00;67.10
9271;DHT22;4673;53.458;9.940;2022-07-23T08:30:20;17.90;67.60
9271;DHT22;4673;53.458;9.940;2022-07-23T08:35:32;17.90;67.20
9271;DHT22;4673;53.458;9.940;2022-07-23T08:37:59;17.30;69.20
9271;DHT22;4673;53.458;9.940;2022-07-23T08:40:30;17.40;70.30
9271;DHT22;4673;53.458;9.940;2022-07-23T08:42:56;17.80;69.20
9271;DHT22;4673;53.458;9.940;2022-07-23T08:45:23;17.80;68.10
9271;DHT22;4673;53.458;9.940;2022-07-23T08:47:50;17.60;68.20
9271;DHT22;4673;53.458;9.940;2022-07-23T08:50:17;17.40;68.40
9271;DHT22;4673;53.458;9.940;2022-07-23T08:52:43;17.10;70.50
9271;DHT22;4673;53.458;9.940;2022-07-23T08:55:09;17.30;69.80
9271;DHT22;4673;53.458;9.940;2022-07-23T08:57:35;17.40;69.10
9271;DHT22;4673;53.458;9.940;2022-07-23T09:00:00;17.50;69.40
9271;DHT22;4673;53.458;9.940;2022-07-23T09:02:26;17.70;68.70
9271;DHT22;4673;53.458;9.940;2022-07-23T09:04:52;18.30;68.70
9271;DHT22;4673;53.458;9.940;2022-07-23T09:07:18;18.90;67.30
9271;DHT22;4673;53.458;9.940;2022-07-23T09:09:44;19.60;65.50
9271;DHT22;4673;53.458;9.940;2022-07-23T09:12:10;20.20;62.40
9271;DHT22;4673;53.458;9.940;2022-07-23T09:14:40;20.70;60.70
9271;DHT22;4673;53.458;9.940;2022-07-23T09:17:16;21.00;58.70
9271;DHT22;4673;53.458;9.940;2022-07-23T09:19:44;21.30;57.00
9271;DHT22;4673;53.458;9.940;2022-07-23T09:22:24;21.10;56.80
9271;DHT22;4673;53.458;9.940;2022-07-23T09:25:10;21.50;55.30
9271;DHT22;4673;53.458;9.940;2022-07-23T09:27:57;21.70;53.30
9271;DHT22;4673;53.458;9.940;2022-07-23T09:30:31;21.60;51.30
9271;DHT22;4673;53.458;9.940;2022-07-23T09:35:50;21.40;50.30
9271;DHT22;4673;53.458;9.940;2022-07-23T09:38:18;21.60;47.10
9271;DHT22;4673;53.458;9.940;2022-07-23T09:40:45;21.50;47.70
9271;DHT22;4673;53.458;9.940;2022-07-23T09:43:12;21.40;46.60
9271;DHT22;4673;53.458;9.940;2022-07-23T09:45:37;21.30;48.00
9271;DHT22;4673;53.458;9.940;2022-07-23T09:48:15;21.40;47.90
9271;DHT22;4673;53.458;9.940;2022-07-23T09:50:43;21.80;48.00
9271;DHT22;4673;53.458;9.940;2022-07-23T09:53:08;22.00;45.40
9271;DHT22;4673;53.458;9.940;2022-07-23T09:55:36;22.10;45.00
9271;DHT22;4673;53.458;9.940;2022-07-23T09:58:06;22.20;44.40
9271;DHT22;4673;53.458;9.940;2022-07-23T10:00:38;22.40;44.10
9271;DHT22;4673;53.458;9.940;2022-07-23T10:03:06;22.20;43.30
9271;DHT22;4673;53.458;9.940;2022-07-23T10:05:41;21.70;44.60
9271;DHT22;4673;53.458;9.940;2022-07-23T10:08:13;21.30;46.30
9271;DHT22;4673;53.458;9.940;2022-07-23T10:10:40;21.10;47.80
9271;DHT22;4673;53.458;9.940;2022-07-23T10:13:07;21.00;48.50
9271;DHT22;4673;53.458;9.940;2022-07-23T10:15:51;20.70;49.50
9271;DHT22;4673;53.458;9.940;2022-07-23T10:18:17;20.60;51.80
9271;DHT22;4673;53.458;9.940;2022-07-23T10:20:43;20.50;51.70
9271;DHT22;4673;53.458;9.940;2022-07-23T10:23:27;20.50;52.40
9271;DHT22;4673;53.458;9.940;2022-07-23T10:26:08;20.40;50.90
9271;DHT22;4673;53.458;9.940;2022-07-23T10:31:50;20.80;49.70
9271;DHT22;4673;53.458;9.940;2022-07-23T10:34:28;21.20;47.40
9271;DHT22;4673;53.458;9.940;2022-07-23T10:37:07;21.40;46.10
9271;DHT22;4673;53.458;9.940;2022-07-23T10:39:37;21.20;44.80
9271;DHT22;4673;53.458;9.940;2022-07-23T10:42:10;21.10;45.60
9271;DHT22;4673;53.458;9.940;2022-07-23T10:44:45;21.00;44.90
9271;DHT22;4673;53.458;9.940;2022-07-23T10:47:12;21.10;46.60
9271;DHT22;4673;53.458;9.940;2022-07-23T10:50:27;21.40;45.20
9271;DHT22;4673;53.458;9.940;2022-07-23T10:57:57;22.00;44.70
9271;DHT22;4673;53.458;9.940;2022-07-23T11:00:25;21.80;42.50
9271;DHT22;4673;53.458;9.940;2022-07-23T11:02:56;21.50;44.10
9271;DHT22;4673;53.458;9.940;2022-07-23T11:05:24;21.70;45.10
9271;DHT22;4673;53.458;9.940;2022-07-23T11:24:06;22.10;43.00
9271;DHT22;4673;53.458;9.940;2022-07-23T11:31:55;22.10;40.00
9271;DHT22;4673;53.458;9.940;2022-07-23T11:34:31;22.10;39.50
9271;DHT22;4673;53.458;9.940;2022-07-23T11:36:58;22.00;39.50
9271;DHT22;4673;53.458;9.940;2022-07-23T11:39:26;22.00;39.40
9271;DHT22;4673;53.458;9.940;2022-07-23T11:41:53;22.00;39.80
9271;DHT22;4673;53.458;9.940;2022-07-23T11:44:31;22.10;39.80
9271;DHT22;4673;53.458;9.940;2022-07-23T11:46:57;22.20;39.80
9271;DHT22;4673;53.458;9.940;2022-07-23T11:49:24;21.80;39.00
9271;DHT22;4673;53.458;9.940;2022-07-23T11:54:32;21.50;42.10
9271;DHT22;4673;53.458;9.940;2022-07-23T11:57:00;21.60;42.70
9271;DHT22;4673;53.458;9.940;2022-07-23T11:59:32;21.30;42.90
9271;DHT22;4673;53.458;9.940;2022-07-23T12:02:03;21.10;44.30
9271;DHT22;4673;53.458;9.940;2022-07-23T12:04:39;21.20;45.00
9271;DHT22;4673;53.458;9.940;2022-07-23T12:07:33;21.00;45.70
9271;DHT22;4673;53.458;9.940;2022-07-23T12:12:50;21.20;45.50
9271;DHT22;4673;53.458;9.940;2022-07-23T12:15:20;21.40;45.00
9271;DHT22;4673;53.458;9.940;2022-07-23T12:17:48;21.20;45.70
9271;DHT22;4673;53.458;9.940;2022-07-23T12:20:44;21.00;47.10
9271;DHT22;4673;53.458;9.940;2022-07-23T12:23:12;21.20;45.60
9271;DHT22;4673;53.458;9.940;2022-07-23T12:25:41;21.00;47.10
9271;DHT22;4673;53.458;9.940;2022-07-23T12:28:12;21.30;47.70
9271;DHT22;4673;53.458;9.940;2022-07-23T12:30:41;21.10;47.00
9271;DHT22;4673;53.458;9.940;2022-07-23T12:33:09;21.20;46.70
9271;DHT22;4673;53.458;9.940;2022-07-23T12:35:44;21.20;44.30
9271;DHT22;4673;53.458;9.940;2022-07-23T12:38:15;21.30;45.20
9271;DHT22;4673;53.458;9.940;2022-07-23T12:40:48;20.60;46.40
9271;DHT22;4673;53.458;9.940;2022-07-23T12:46:03;20.90;48.40
9271;DHT22;4673;53.458;9.940;2022-07-23T12:48:30;20.90;49.70
9271;DHT22;4673;53.458;9.940;2022-07-23T12:51:19;21.10;50.40
9271;DHT22;4673;53.458;9.940;2022-07-23T12:56:26;21.50;50.10
9271;DHT22;4673;53.458;9.940;2022-07-23T12:58:56;21.00;51.90
9271;DHT22;4673;53.458;9.940;2022-07-23T13:01:25;21.20;52.10
9271;DHT22;4673;53.458;9.940;2022-07-23T13:04:09;21.20;50.50
9271;DHT22;4673;53.458;9.940;2022-07-23T13:09:04;21.30;51.40
9271;DHT22;4673;53.458;9.940;2022-07-23T13:11:31;21.60;49.00
9271;DHT22;4673;53.458;9.940;2022-07-23T13:13:57;21.70;48.80
9271;DHT22;4673;53.458;9.940;2022-07-23T13:16:23;21.40;49.10
9271;DHT22;4673;53.458;9.940;2022-07-23T13:18:49;21.20;47.50
9271;DHT22;4673;53.458;9.940;2022-07-23T13:21:15;21.10;48.90
9271;DHT22;4673;53.458;9.940;2022-07-23T13:23:42;21.10;49.10
9271;DHT22;4673;53.458;9.940;2022-07-23T13:26:07;21.30;49.90
9271;DHT22;4673;53.458;9.940;2022-07-23T13:28:33;21.50;48.00
9271;DHT22;4673;53.458;9.940;2022-07-23T13:30:58;21.70;47.90
9271;DHT22;4673;53.458;9.940;2022-07-23T13:33:25;21.80;46.20
9271;DHT22;4673;53.458;9.940;2022-07-23T13:35:52;21.40;46.40
9271;DHT22;4673;53.458;9.940;2022-07-23T13:38:19;21.40;47.70
9271;DHT22;4673;53.458;9.940;2022-07-23T13:40:47;21.50;48.20
9271;DHT22;4673;53.458;9.940;2022-07-23T13:43:15;21.40;47.80
9271;DHT22;4673;53.458;9.940;2022-07-23T13:45:42;21.30;47.20
9271;DHT22;4673;53.458;9.940;2022-07-23T13:48:09;21.10;47.70
9271;DHT22;4673;53.458;9.940;2022-07-23T13:50:35;21.10;48.10
9271;DHT22;4673;53.458;9.940;2022-07-23T13:53:07;21.30;48.20
9271;DHT22;4673;53.458;9.940;2022-07-23T13:55:33;21.10;48.40
9271;DHT22;4673;53.458;9.940;2022-07-23T13:57:59;21.00;48.10
9271;DHT22;4673;53.458;9.940;2022-07-23T14:00:26;21.00;46.40
9271;DHT22;4673;53.458;9.940;2022-07-23T14:02:52;21.10;46.40
9271;DHT22;4673;53.458;9.940;2022-07-23T14:05:18;20.70;45.80
9271;DHT22;4673;53.458;9.940;2022-07-23T14:07:44;20.30;47.70
9271;DHT22;4673;53.458;9.940;2022-07-23T14:10:12;20.20;48.90
9271;DHT22;4673;53.458;9.940;2022-07-23T14:12:38;20.30;49.30
9271;DHT22;4673;53.458;9.940;2022-07-23T14:15:05;20.30;48.20
9271;DHT22;4673;53.458;9.940;2022-07-23T14:17:31;20.30;48.30
9271;DHT22;4673;53.458;9.940;2022-07-23T14:19:58;20.40;48.40
9271;DHT22;4673;53.458;9.940;2022-07-23T14:22:24;20.40;48.00
9271;DHT22;4673;53.458;9.940;2022-07-23T14:24:50;20.40;47.20
9271;DHT22;4673;53.458;9.940;2022-07-23T14:27:16;20.60;47.60
9271;DHT22;4673;53.458;9.940;2022-07-23T14:29:41;20.70;48.50
9271;DHT22;4673;53.458;9.940;2022-07-23T14:32:07;20.50;49.20
9271;DHT22;4673;53.458;9.940;2022-07-23T14:34:34;20.30;50.10
9271;DHT22;4673;53.458;9.940;2022-07-23T14:37:00;20.00;51.20
9271;DHT22;4673;53.458;9.940;2022-07-23T14:39:26;19.70;50.40
9271;DHT22;4673;53.458;9.940;2022-07-23T14:41:52;19.70;51.50
9271;DHT22;4673;53.458;9.940;2022-07-23T14:44:17;19.90;51.50
9271;DHT22;4673;53.458;9.940;2022-07-23T14:46:43;20.30;51.30
9271;DHT22;4673;53.458;9.940;2022-07-23T14:49:09;20.70;50.20
9271;DHT22;4673;53.458;9.940;2022-07-23T14:51:35;20.80;49.70
9271;DHT22;4673;53.458;9.940;2022-07-23T14:54:03;20.80;47.10
9271;DHT22;4673;53.458;9.940;2022-07-23T14:56:28;21.10;47.60
9271;DHT22;4673;53.458;9.940;2022-07-23T14:58:54;21.40;47.10
9271;DHT22;4673;53.458;9.940;2022-07-23T15:01:21;21.70;47.10
9271;DHT22;4673;53.458;9.940;2022-07-23T15:03:48;22.00;45.90
9271;DHT22;4673;53.458;9.940;2022-07-23T15:06:14;21.90;41.30
9271;DHT22;4673;53.458;9.940;2022-07-23T15:08:40;21.90;42.00
9271;DHT22;4673;53.458;9.940;2022-07-23T15:11:06;22.00;41.30
9271;DHT22;4673;53.458;9.940;2022-07-23T15:13:34;21.50;42.20
9271;DHT22;4673;53.458;9.940;2022-07-23T15:16:00;21.50;41.30
9271;DHT22;4673;53.458;9.940;2022-07-23T15:18:26;21.20;42.40
9271;DHT22;4673;53.458;9.940;2022-07-23T15:20:51;21.10;45.40
9271;DHT22;4673;53.458;9.940;2022-07-23T15:23:17;20.80;47.20
9271;DHT22;4673;53.458;9.940;2022-07-23T15:25:43;20.90;48.70
9271;DHT22;4673;53.458;9.940;2022-07-23T15:28:08;20.80;47.70
9271;DHT22;4673;53.458;9.940;2022-07-23T15:30:34;20.40;49.50
9271;DHT22;4673;53.458;9.940;2022-07-23T15:33:00;20.30;49.90
9271;DHT22;4673;53.458;9.940;2022-07-23T15:35:26;19.90;49.60
9271;DHT22;4673;53.458;9.940;2022-07-23T15:37:51;19.90;50.60
9271;DHT22;4673;53.458;9.940;2022-07-23T15:40:17;19.70;50.80
9271;DHT22;4673;53.458;9.940;2022-07-23T15:42:43;19.90;49.20
9271;DHT22;4673;53.458;9.940;2022-07-23T15:45:09;19.80;49.20
9271;DHT22;4673;53.458;9.940;2022-07-23T15:47:34;19.70;50.10
9271;DHT22;4673;53.458;9.940;2022-07-23T15:50:00;19.70;51.40
9271;DHT22;4673;53.458;9.940;2022-07-23T15:52:26;19.80;51.00
9271;DHT22;4673;53.458;9.940;2022-07-23T15:54:51;20.00;51.60
9271;DHT22;4673;53.458;9.940;2022-07-23T15:57:17;20.10;51.60
9271;DHT22;4673;53.458;9.940;2022-07-23T15:59:43;20.10;50.30
9271;DHT22;4673;53.458;9.940;2022-07-23T16:02:09;19.90;49.70
9271;DHT22;4673;53.458;9.940;2022-07-23T16:04:35;19.90;51.60
9271;DHT22;4673;53.458;9.940;2022-07-23T16:07:00;19.70;52.80
9271;DHT22;4673;53.458;9.940;2022-07-23T16:09:27;19.80;52.70
9271;DHT22;4673;53.458;9.940;2022-07-23T16:11:53;19.90;52.40
9271;DHT22;4673;53.458;9.940;2022-07-23T16:14:20;19.90;52.20
9271;DHT22;4673;53.458;9.940;2022-07-23T16:16:46;19.90;52.70
9271;DHT22;4673;53.458;9.940;2022-07-23T16:19:12;19.90;52.70
9271;DHT22;4673;53.458;9.940;2022-07-23T16:21:38;19.80;53.60
9271;DHT22;4673;53.458;9.940;2022-07-23T16:24:04;20.00;54.00
9271;DHT22;4673;53.458;9.940;2022-07-23T16:26:30;19.80;53.30
9271;DHT22;4673;53.458;9.940;2022-07-23T16:28:56;19.40;54.30
9271;DHT22;4673;53.458;9.940;2022-07-23T16:31:22;19.30;55.00
9271;DHT22;4673;53.458;9.940;2022-07-23T16:33:47;19.30;55.30
9271;DHT22;4673;53.458;9.940;2022-07-23T16:36:13;19.20;55.40
9271;DHT22;4673;53.458;9.940;2022-07-23T16:38:39;19.10;55.70
9271;DHT22;4673;53.458;9.940;2022-07-23T16:41:06;19.00;56.30
9271;DHT22;4673;53.458;9.940;2022-07-23T16:43:32;18.80;56.20
9271;DHT22;4673;53.458;9.940;2022-07-23T16:45:59;18.80;56.80
9271;DHT22;4673;53.458;9.940;2022-07-23T16:48:25;18.70;56.90
9271;DHT22;4673;53.458;9.940;2022-07-23T16:50:51;18.90;57.10